Time;durP1;ratioP1;P1;durP2;ratioP2;P2;SDS_P1;SDS_P2;PMS_P1;PMS_P2;Temp;Humidity;BMP_temperature;BMP_pressure;BME280_temperature;BME280_humidity;BME280_pressure;Samples;Min_cycle;Max_cycle;Signal;HPM_P1;HPM_P2
2024/01/10 00:14:42;;;;;;;6.40;3.93;;;;;;;-6.53;100.00;101363.47;30971089;28;20061;-80
2024/01/10 00:29:44;;;;;;;4.33;3.97;;;;;;;-6.74;100.00;101368.06;30997808;28;20059;-79
2024/01/10 00:44:46;;;;;;;3.00;2.80;;;;;;;-6.69;100.00;101354.03;30963274;28;20124;-90
2024/01/10 00:59:48;;;;;;;3.30;3.00;;;;;;;-6.32;100.00;101321.84;31086506;28;20077;-88
2024/01/10 01:14:50;;;;;;;3.47;3.23;;;;;;;-5.96;100.00;101278.19;31053653;28;20054;-88
2024/01/10 01:29:53;;;;;;;2.97;2.70;;;;;;;-5.52;100.00;101235.63;31040997;28;20051;-90
2024/01/10 01:44:55;;;;;;;3.00;2.43;;;;;;;-5.26;100.00;101220.22;31067376;28;20055;-89
2024/01/10 01:59:57;;;;;;;2.63;2.50;;;;;;;-4.05;100.00;101152.31;31029082;28;20169;-80
2024/01/10 02:14:59;;;;;;;5.07;2.83;;;;;;;-4.60;100.00;101142.41;31010361;28;20065;-79
2024/01/10 02:30:05;;;;;;;4.10;3.40;;;;;;;-4.10;100.00;101139.94;31011662;28;20047;-80
2024/01/10 02:45:08;;;;;;;4.00;3.33;;;;;;;-3.18;100.00;101115.66;31006354;28;20189;-88
2024/01/10 03:00:11;;;;;;;3.23;2.93;;;;;;;-2.95;100.00;101094.41;31011647;28;20123;-81
2024/01/10 03:15:13;;;;;;;2.73;2.53;;;;;;;-3.33;100.00;101081.50;30994975;28;20054;-88
2024/01/10 03:30:18;;;;;;;4.63;3.17;;;;;;;-3.33;100.00;101049.66;30999653;28;20786;-82
2024/01/10 03:45:22;;;;;;;8.03;6.13;;;;;;;-1.82;100.00;101014.72;31017292;28;20193;-81
2024/01/10 04:00:25;;;;;;;7.37;5.90;;;;;;;-1.74;100.00;100982.00;30997029;28;20061;-82
2024/01/10 04:15:27;;;;;;;11.57;5.33;;;;;;;-1.52;100.00;100967.72;30991486;28;20061;-80
2024/01/10 04:30:29;;;;;;;9.43;5.83;;;;;;;-1.26;100.00;100959.69;31024599;28;20054;-88
2024/01/10 04:45:32;;;;;;;16.70;6.07;;;;;;;-1.13;100.00;100956.03;31002354;28;20054;-80
2024/01/10 05:00:35;;;;;;;9.13;5.37;;;;;;;-0.93;100.00;100948.41;31001325;28;20047;-80
2024/01/10 05:15:37;;;;;;;11.03;6.70;;;;;;;-0.85;100.00;100951.06;31025527;28;20046;-89
2024/01/10 05:30:39;;;;;;;9.30;5.10;;;;;;;-0.56;100.00;100944.97;31037536;28;20054;-81
2024/01/10 05:45:41;;;;;;;4.30;3.83;;;;;;;-0.41;100.00;100935.59;31022298;28;20050;-87
2024/01/10 06:00:44;;;;;;;5.63;3.43;;;;;;;-0.22;100.00;100911.13;31035803;28;20054;-88
2024/01/10 06:15:46;;;;;;;4.93;4.30;;;;;;;0.07;100.00;100921.75;31045444;28;20061;-87
2024/01/10 06:30:48;;;;;;;4.10;3.67;;;;;;;-0.05;100.00;100911.81;31051321;28;20054;-89
2024/01/10 06:45:51;;;;;;;5.40;2.73;;;;;;;0.39;100.00;100914.84;31004746;28;20058;-81
2024/01/10 07:00:53;;;;;;;5.67;3.50;;;;;;;0.85;100.00;100915.63;30994054;28;20049;-82
2024/01/10 07:15:55;;;;;;;7.20;4.23;;;;;;;1.01;100.00;100909.28;30986044;28;20046;-79
2024/01/10 07:31:02;;;;;;;4.80;3.93;;;;;;;1.07;100.00;100909.06;30993682;28;20074;-84
2024/01/10 07:46:06;;;;;;;6.80;3.47;;;;;;;0.94;100.00;100901.03;30990618;28;20073;-82
2024/01/10 08:01:10;;;;;;;3.37;3.07;;;;;;;1.13;100.00;100902.38;30962035;28;20054;-83
2024/01/10 08:16:13;;;;;;;5.57;3.30;;;;;;;-0.21;100.00;100915.38;30988949;28;20054;-82
2024/01/10 08:31:17;;;;;;;2.83;2.43;;;;;;;-0.35;100.00;100875.63;31005599;28;20058;-83
2024/01/10 08:46:26;;;;;;;5.70;3.80;;;;;;;-0.24;100.00;100860.00;30987834;28;20128;-82
2024/01/10 09:01:28;;;;;;;3.40;2.90;;;;;;;-0.25;100.00;100867.22;30977043;28;20058;-82
2024/01/10 09:16:32;;;;;;;6.10;3.53;;;;;;;-0.29;100.00;100873.53;31010252;28;20054;-89
2024/01/10 09:31:45;;;;;;;6.40;4.30;;;;;;;0.07;100.00;100844.31;30991815;28;20132;-79
2024/01/10 09:46:55;;;;;;;5.90;4.37;;;;;;;0.59;100.00;100839.19;30967744;28;20090;-79
2024/01/10 10:02:00;;;;;;;5.00;3.53;;;;;;;0.26;100.00;100846.47;30983969;28;20626;-78
2024/01/10 10:17:16;;;;;;;12.07;5.73;;;;;;;0.61;100.00;100841.53;30950800;28;20972;-81
2024/01/10 10:32:18;;;;;;;6.87;5.57;;;;;;;0.27;100.00;100850.72;30965020;28;20056;-83
2024/01/10 10:47:25;;;;;;;8.20;4.70;;;;;;;0.36;100.00;100851.41;30937944;28;20054;-77
2024/01/10 11:02:27;;;;;;;12.73;6.80;;;;;;;0.31;100.00;100865.75;31007798;28;20054;-76
2024/01/10 11:17:47;;;;;;;;;;;;;;;0.55;100.00;100867.69;30956723;28;20058;-78
2024/01/10 11:32:49;;;;;;;9.37;4.90;;;;;;;0.39;100.00;100879.34;30978128;28;20437;-86
2024/01/10 11:47:51;;;;;;;12.17;6.97;;;;;;;0.33;100.00;100895.56;30921619;28;20414;-86
2024/01/10 12:02:54;;;;;;;25.13;8.63;;;;;;;0.33;100.00;100897.47;30990944;28;20058;-86
2024/01/10 12:17:56;;;;;;;12.37;6.37;;;;;;;0.89;100.00;100881.75;30885946;28;20061;-82
2024/01/10 12:33:04;;;;;;;20.40;8.17;;;;;;;0.75;100.00;100900.78;30974987;28;20209;-88
2024/01/10 12:49:01;;;;;;;20.53;7.97;;;;;;;0.92;100.00;100905.16;30889058;28;20054;-86
2024/01/10 13:04:37;;;;;;;14.57;8.27;;;;;;;0.87;100.00;100908.03;31066937;28;20093;-83
2024/01/10 13:20:15;;;;;;;;;;;;;;;;;;;;;
2024/01/10 13:35:38;;;;;;;16.27;8.33;;;;;;;0.65;100.00;100911.91;31085061;28;20470;-87
2024/01/10 13:51:11;;;;;;;14.70;7.50;;;;;;;0.63;100.00;100903.44;30842241;28;20115;-82
2024/01/10 14:06:14;;;;;;;14.93;7.20;;;;;;;1.58;100.00;100919.03;31034664;28;20054;-81
2024/01/10 14:21:16;;;;;;;21.53;9.13;;;;;;;1.01;100.00;100922.63;31010177;28;20050;-81
2024/01/10 14:36:19;;;;;;;13.77;8.97;;;;;;;0.64;100.00;100918.38;30982104;28;20057;-83
2024/01/10 14:51:24;;;;;;;21.30;9.27;;;;;;;0.73;100.00;100947.66;30919268;28;20061;-81
2024/01/10 15:06:27;;;;;;;15.03;8.43;;;;;;;0.86;100.00;100960.72;30942833;28;20054;-83
2024/01/10 15:21:29;;;;;;;12.83;7.43;;;;;;;0.84;100.00;100956.81;31032773;28;20269;-83
2024/01/10 15:36:31;;;;;;;16.73;9.27;;;;;;;0.96;100.00;100965.63;31031494;28;20046;-86
2024/01/10 15:51:37;;;;;;;16.33;8.97;;;;;;;2.31;100.00;100969.72;31021524;28;20502;-83
2024/01/10 16:06:40;;;;;;;18.60;8.07;;;;;;;2.57;100.00;100966.59;31085930;28;20090;-85
2024/01/10 16:21:46;;;;;;;15.80;9.00;;;;;;;2.62;100.00;100978.94;31028312;28;20421;-83
2024/01/10 16:36:48;;;;;;;11.90;6.80;;;;;;;2.58;100.00;100989.59;31035275;28;20051;-83
2024/01/10 16:51:51;;;;;;;12.73;6.93;;;;;;;1.56;100.00;100988.19;31045342;28;20065;-83
2024/01/10 17:06:53;;;;;;;13.10;7.70;;;;;;;2.11;100.00;100984.06;31041415;28;20116;-81
2024/01/10 17:21:55;;;;;;;20.70;9.63;;;;;;;1.48;100.00;100964.19;31047467;28;20069;-82
2024/01/10 17:37:03;;;;;;;17.73;10.30;;;;;;;1.44;100.00;100963.31;31019088;28;20098;-87
2024/01/10 17:52:19;;;;;;;15.97;7.63;;;;;;;1.73;100.00;100970.31;31013452;28;20486;-86
2024/01/10 18:07:23;;;;;;;19.23;8.73;;;;;;;1.52;100.00;100971.22;30965612;28;20054;-83
2024/01/10 18:22:27;;;;;;;15.60;8.20;;;;;;;1.81;100.00;100978.22;30985498;28;20139;-84
2024/01/10 18:37:30;;;;;;;15.93;9.57;;;;;;;1.64;100.00;100986.50;30889933;28;20102;-82
2024/01/10 18:52:32;;;;;;;15.57;8.90;;;;;;;1.53;100.00;100988.84;30991289;28;20426;-85
2024/01/10 19:07:34;;;;;;;17.87;9.03;;;;;;;1.57;100.00;100970.22;30947175;28;20480;-83
2024/01/10 19:22:36;;;;;;;17.63;8.73;;;;;;;1.63;100.00;100963.53;30978736;28;20058;-80
2024/01/10 19:37:38;;;;;;;13.30;7.37;;;;;;;1.65;100.00;100970.09;30994028;28;20494;-83
2024/01/10 19:52:40;;;;;;;15.13;7.87;;;;;;;1.67;100.00;100972.44;30990397;28;20483;-83
2024/01/10 20:07:43;;;;;;;36.50;17.50;;;;;;;1.76;100.00;100958.94;31013729;28;20058;-80
2024/01/10 20:22:48;;;;;;;20.80;10.53;;;;;;;1.99;100.00;100965.34;30974889;28;20065;-84
2024/01/10 20:37:50;;;;;;;16.40;8.23;;;;;;;1.83;100.00;100959.16;31002035;28;20411;-83
2024/01/10 20:52:52;;;;;;;17.57;9.33;;;;;;;1.83;100.00;100938.50;31027495;28;20101;-84
2024/01/10 21:07:54;;;;;;;20.40;11.13;;;;;;;1.84;100.00;100931.25;30982927;28;20108;-86
2024/01/10 21:22:56;;;;;;;23.93;11.37;;;;;;;1.87;100.00;100911.84;30970613;28;20054;-84
2024/01/10 21:37:58;;;;;;;25.10;11.63;;;;;;;1.62;100.00;100917.25;30983858;28;20058;-86
2024/01/10 21:53:01;;;;;;;26.40;11.20;;;;;;;1.81;100.00;100905.16;31002107;28;20526;-85
2024/01/10 22:08:04;;;;;;;27.53;11.63;;;;;;;1.88;100.00;100886.63;31018826;28;20073;-85
2024/01/10 22:23:09;;;;;;;27.03;12.60;;;;;;;1.98;100.00;100881.56;31010144;28;20054;-83
2024/01/10 22:38:12;;;;;;;34.73;12.97;;;;;;;2.19;100.00;100859.13;31038654;28;20050;-87
2024/01/10 22:53:14;;;;;;;32.53;12.47;;;;;;;2.83;100.00;100840.06;31034293;28;20093;-85
2024/01/10 23:08:16;;;;;;;25.27;12.30;;;;;;;2.07;100.00;100825.16;31023334;28;20066;-77
2024/01/10 23:23:18;;;;;;;30.67;11.10;;;;;;;1.83;100.00;100803.88;30980678;28;20066;-76
2024/01/10 23:38:20;;;;;;;27.60;11.27;;;;;;;1.75;100.00;100765.41;30977375;28;20066;-78
2024/01/10 23:53:26;;;;;;;14.90;8.30;;;;;;;1.79;100.00;100768.19;30973867;28;20466;-76
